Time;durP1;ratioP1;P1;durP2;ratioP2;P2;SDS_P1;SDS_P2;PMS_P1;PMS_P2;Temp;Humidity;BMP_temperature;BMP_pressure;BME280_temperature;BME280_humidity;BME280_pressure;Samples;Min_cycle;Max_cycle;Signal;HPM_P1;HPM_P2
2023/09/04 00:01:50;;;;;;;15.50;12.33;;;13.60;99.90;;;;;;5029399;28;20195;-51
2023/09/04 00:04:16;;;;;;;19.33;12.57;;;13.60;99.90;;;;;;5025045;28;20791;-50
2023/09/04 00:06:41;;;;;;;17.80;11.87;;;13.60;99.90;;;;;;5026102;28;20416;-50
2023/09/04 00:09:07;;;;;;;18.57;13.63;;;13.60;99.90;;;;;;5024926;28;20189;-51
2023/09/04 00:11:32;;;;;;;15.80;12.00;;;13.60;99.90;;;;;;5027215;28;20183;-50
2023/09/04 00:13:58;;;;;;;13.13;11.40;;;13.70;99.90;;;;;;5025104;28;20314;-50
2023/09/04 00:16:23;;;;;;;15.10;11.80;;;13.80;99.90;;;;;;5024075;28;20186;-50
2023/09/04 00:18:49;;;;;;;17.80;12.73;;;13.80;99.90;;;;;;5027900;28;20202;-50
2023/09/04 00:21:15;;;;;;;16.83;11.97;;;13.80;99.90;;;;;;5025780;28;20230;-51
2023/09/04 00:23:41;;;;;;;16.67;13.27;;;13.90;99.90;;;;;;5025750;28;20218;-50
2023/09/04 00:26:06;;;;;;;15.60;12.30;;;13.90;99.90;;;;;;5025063;28;20528;-50
2023/09/04 00:28:32;;;;;;;16.20;11.80;;;13.90;99.90;;;;;;5026895;28;20191;-51
2023/09/04 00:30:58;;;;;;;14.43;10.90;;;13.90;99.90;;;;;;5021909;28;20202;-51
2023/09/04 00:33:23;;;;;;;18.30;12.20;;;13.90;99.90;;;;;;5026234;28;20719;-49
2023/09/04 00:35:49;;;;;;;17.73;12.97;;;13.80;99.90;;;;;;5024504;28;20199;-50
2023/09/04 00:38:15;;;;;;;13.63;11.20;;;13.80;99.90;;;;;;5023902;28;20199;-51
2023/09/04 00:40:41;;;;;;;15.17;11.23;;;13.70;99.90;;;;;;5025172;28;20190;-50
2023/09/04 00:43:07;;;;;;;16.60;12.33;;;13.70;99.90;;;;;;5023913;28;20472;-50
2023/09/04 00:45:34;;;;;;;20.20;12.50;;;13.60;99.90;;;;;;5024393;28;20251;-50
2023/09/04 00:48:00;;;;;;;15.70;12.07;;;13.60;99.90;;;;;;5024642;28;20191;-51
2023/09/04 00:50:26;;;;;;;13.37;11.53;;;13.50;99.90;;;;;;5026133;28;20598;-51
2023/09/04 00:52:57;;;;;;;20.30;12.93;;;13.50;99.90;;;;;;5023534;28;20497;-50
2023/09/04 00:55:24;;;;;;;12.07;10.73;;;13.50;99.90;;;;;;5024174;28;20437;-49
2023/09/04 00:57:49;;;;;;;14.57;11.70;;;13.50;99.90;;;;;;5022666;28;20523;-50
2023/09/04 01:00:19;;;;;;;19.23;12.20;;;13.40;99.90;;;;;;5023857;28;20464;-50
2023/09/04 01:02:45;;;;;;;14.10;10.63;;;13.40;99.90;;;;;;5027393;28;20225;-50
2023/09/04 01:05:10;;;;;;;15.90;12.30;;;13.40;99.90;;;;;;5025750;28;20445;-51
2023/09/04 01:07:40;;;;;;;17.23;13.43;;;13.40;99.90;;;;;;5026009;28;20635;-51
2023/09/04 01:10:08;;;;;;;18.43;12.97;;;13.40;99.90;;;;;;5030125;28;20194;-50
2023/09/04 01:13:03;;;;;;;22.17;13.03;;;13.30;99.90;;;;;;5025542;28;20465;-49
2023/09/04 01:15:30;;;;;;;14.53;11.17;;;13.30;99.90;;;;;;5024525;28;20453;-50
2023/09/04 01:17:56;;;;;;;15.33;11.80;;;13.20;99.90;;;;;;5023575;28;20449;-50
2023/09/04 01:20:29;;;;;;;19.77;12.00;;;13.20;99.90;;;;;;5022754;28;20439;-49
2023/09/04 01:22:55;;;;;;;18.53;12.00;;;13.20;99.90;;;;;;5023536;28;20288;-50
2023/09/04 01:25:24;;;;;;;22.10;11.33;;;13.10;99.90;;;;;;5025147;28;20483;-50
2023/09/04 01:28:10;;;;;;;15.80;12.37;;;13.00;99.90;;;;;;5027204;28;20440;-51
2023/09/04 01:31:03;;;;;;;18.50;13.27;;;13.00;99.90;;;;;;5023418;28;20482;-49
2023/09/04 01:33:33;;;;;;;20.73;13.30;;;12.90;99.90;;;;;;5014785;28;20448;-49
2023/09/04 01:36:04;;;;;;;22.67;13.50;;;12.90;99.90;;;;;;5022412;28;20464;-50
2023/09/04 01:38:32;;;;;;;23.07;14.37;;;12.90;99.90;;;;;;5022675;28;20444;-50
2023/09/04 01:40:58;;;;;;;15.40;13.40;;;12.90;99.90;;;;;;5023760;28;20457;-49
2023/09/04 01:43:23;;;;;;;22.37;15.77;;;12.90;99.90;;;;;;5022524;28;20488;-50
2023/09/04 01:45:49;;;;;;;23.20;16.60;;;12.90;99.90;;;;;;5026234;28;20269;-52
2023/09/04 01:48:15;;;;;;;23.67;15.67;;;13.00;99.90;;;;;;5022436;28;20191;-50
2023/09/04 01:50:40;;;;;;;23.77;16.20;;;13.00;99.90;;;;;;5026251;28;20282;-51
2023/09/04 01:53:06;;;;;;;26.30;17.20;;;13.10;99.90;;;;;;5020500;28;20187;-50
2023/09/04 01:55:31;;;;;;;25.20;16.37;;;13.10;99.90;;;;;;5024548;28;20193;-49
2023/09/04 01:57:57;;;;;;;25.50;17.10;;;13.20;99.90;;;;;;5025063;28;20202;-50
2023/09/04 02:00:22;;;;;;;28.57;17.63;;;13.20;99.90;;;;;;5029062;28;20194;-49
2023/09/04 02:02:49;;;;;;;29.80;19.20;;;13.20;99.90;;;;;;5029030;28;20757;-49
2023/09/04 02:05:15;;;;;;;28.60;17.63;;;13.20;99.90;;;;;;5024767;28;20281;-49
2023/09/04 02:07:40;;;;;;;29.27;19.87;;;13.10;99.90;;;;;;5029392;28;20520;-50
2023/09/04 02:10:06;;;;;;;27.43;18.00;;;13.10;99.90;;;;;;5025529;28;20240;-49
2023/09/04 02:12:32;;;;;;;27.47;18.40;;;13.10;99.90;;;;;;5028328;28;20531;-49
2023/09/04 02:14:58;;;;;;;29.57;20.63;;;13.10;99.90;;;;;;5026378;28;20445;-50
2023/09/04 02:17:23;;;;;;;29.70;19.63;;;13.10;99.90;;;;;;5030123;28;20233;-49
2023/09/04 02:19:49;;;;;;;29.17;18.47;;;13.10;99.90;;;;;;5028486;28;20226;-48
2023/09/04 02:22:14;;;;;;;36.50;21.30;;;13.10;99.90;;;;;;5026069;28;20238;-49
2023/09/04 02:24:42;;;;;;;30.00;20.50;;;13.00;99.90;;;;;;5026783;28;20194;-49
2023/09/04 02:27:07;;;;;;;35.43;21.07;;;13.00;99.90;;;;;;5026261;28;20246;-49
2023/09/04 02:29:33;;;;;;;32.83;21.57;;;13.00;99.90;;;;;;5027975;28;20943;-50
2023/09/04 02:31:58;;;;;;;30.03;21.60;;;13.00;99.90;;;;;;5029681;28;20193;-49
2023/09/04 02:34:24;;;;;;;32.57;20.70;;;13.00;99.90;;;;;;5027379;28;20193;-48
2023/09/04 02:36:49;;;;;;;36.30;20.57;;;13.00;99.90;;;;;;5029173;28;20238;-49
2023/09/04 02:39:15;;;;;;;32.37;21.10;;;13.00;99.90;;;;;;5024778;28;20186;-48
2023/09/04 02:41:40;;;;;;;24.70;17.60;;;13.00;99.90;;;;;;5027431;28;20193;-49
2023/09/04 02:44:06;;;;;;;33.33;19.20;;;12.90;99.90;;;;;;5025688;28;20222;-49
2023/09/04 02:46:32;;;;;;;32.00;19.60;;;12.80;99.90;;;;;;5028069;28;20194;-49
2023/09/04 02:48:58;;;;;;;27.20;19.13;;;12.80;99.90;;;;;;5026975;28;20182;-50
2023/09/04 02:51:23;;;;;;;28.40;19.20;;;12.80;99.90;;;;;;5030042;28;20274;-47
2023/09/04 02:53:49;;;;;;;37.50;20.83;;;12.80;99.90;;;;;;5027510;28;20528;-49
2023/09/04 02:56:15;;;;;;;31.07;21.20;;;12.80;99.90;;;;;;5028002;28;20186;-50
2023/09/04 02:58:41;;;;;;;35.40;23.10;;;12.70;99.90;;;;;;5025375;28;20194;-49
2023/09/04 03:01:06;;;;;;;33.50;20.87;;;12.80;99.90;;;;;;5024830;28;20443;-48
2023/09/04 03:03:32;;;;;;;34.80;21.90;;;12.80;99.90;;;;;;5026311;28;20227;-49
2023/09/04 03:06:06;;;;;;;32.63;21.30;;;12.70;99.90;;;;;;5027006;28;20196;-49
2023/09/04 03:08:32;;;;;;;33.20;22.23;;;12.70;99.90;;;;;;5027507;28;20196;-49
2023/09/04 03:10:58;;;;;;;38.53;22.70;;;12.70;99.90;;;;;;5027312;28;20445;-49
2023/09/04 03:13:23;;;;;;;33.53;21.77;;;12.70;99.90;;;;;;5027803;28;20656;-49
2023/09/04 03:15:49;;;;;;;35.10;22.70;;;12.70;99.90;;;;;;5028563;28;20186;-48
2023/09/04 03:18:14;;;;;;;35.50;21.63;;;12.70;99.90;;;;;;5029128;28;20233;-49
2023/09/04 03:20:40;;;;;;;33.90;21.80;;;12.70;99.90;;;;;;5028662;28;20254;-50
2023/09/04 03:23:07;;;;;;;33.53;20.23;;;12.70;99.90;;;;;;5027735;28;20262;-48
2023/09/04 03:25:33;;;;;;;38.00;21.90;;;12.70;99.90;;;;;;5025887;28;20193;-48
2023/09/04 03:27:58;;;;;;;38.60;24.00;;;12.70;99.90;;;;;;5027457;28;20444;-48
2023/09/04 03:30:24;;;;;;;29.83;21.23;;;12.70;99.90;;;;;;5025983;28;20456;-49
2023/09/04 03:32:50;;;;;;;42.50;22.00;;;12.60;99.90;;;;;;5025965;28;20183;-49
2023/09/04 03:35:17;;;;;;;35.93;22.07;;;12.60;99.90;;;;;;5027751;28;20179;-49
2023/09/04 03:37:42;;;;;;;39.10;24.90;;;12.60;99.90;;;;;;5030046;28;20201;-49
2023/09/04 03:40:25;;;;;;;39.60;23.53;;;12.60;99.90;;;;;;5026787;28;20453;-49
2023/09/04 03:42:52;;;;;;;36.27;21.87;;;12.60;99.90;;;;;;5025856;28;20225;-48
2023/09/04 03:45:18;;;;;;;38.03;22.60;;;12.50;99.90;;;;;;5027546;28;20441;-49
2023/09/04 03:47:44;;;;;;;37.90;22.90;;;12.50;99.90;;;;;;5024602;28;20469;-49
2023/09/04 03:50:13;;;;;;;38.10;24.00;;;12.50;99.90;;;;;;5028136;28;20294;-49
2023/09/04 03:52:40;;;;;;;34.93;23.03;;;12.50;99.90;;;;;;5029596;28;20440;-48
2023/09/04 03:55:07;;;;;;;31.60;21.30;;;12.50;99.90;;;;;;5024133;28;20434;-48
2023/09/04 03:57:35;;;;;;;48.77;26.27;;;12.50;99.90;;;;;;5027656;28;20432;-49
2023/09/04 04:00:01;;;;;;;45.00;26.97;;;12.50;99.90;;;;;;5026373;28;20442;-49
2023/09/04 04:02:27;;;;;;;41.57;25.30;;;12.50;99.90;;;;;;5026276;28;20476;-49
2023/09/04 04:04:52;;;;;;;40.70;25.23;;;12.50;99.90;;;;;;5027030;28;20460;-48
2023/09/04 04:07:18;;;;;;;49.13;26.87;;;12.50;99.90;;;;;;5024939;28;20197;-48
2023/09/04 04:09:44;;;;;;;40.43;25.50;;;12.50;99.90;;;;;;5024866;28;20179;-48
2023/09/04 04:12:10;;;;;;;41.40;25.93;;;12.50;99.90;;;;;;5024945;28;20199;-50
2023/09/04 04:14:36;;;;;;;48.37;27.23;;;12.50;99.90;;;;;;5026610;28;20809;-49
2023/09/04 04:17:01;;;;;;;42.40;25.73;;;12.50;99.90;;;;;;5028718;28;20480;-49
2023/09/04 04:19:28;;;;;;;42.27;26.20;;;12.50;99.90;;;;;;5026240;28;20190;-48
2023/09/04 04:21:53;;;;;;;40.90;25.80;;;12.50;99.90;;;;;;5025785;28;20239;-49
2023/09/04 04:24:20;;;;;;;50.70;29.17;;;12.40;99.90;;;;;;5024342;28;20484;-49
2023/09/04 04:26:46;;;;;;;47.83;26.57;;;12.50;99.90;;;;;;5027659;28;20204;-48
2023/09/04 04:29:11;;;;;;;49.80;28.67;;;12.50;99.90;;;;;;5025660;28;20436;-49
2023/09/04 04:31:37;;;;;;;46.87;28.23;;;12.50;99.90;;;;;;5025957;28;20231;-48
2023/09/04 04:34:03;;;;;;;48.67;27.93;;;12.50;99.90;;;;;;5027326;28;20633;-48
2023/09/04 04:36:30;;;;;;;54.00;30.03;;;12.50;99.90;;;;;;5024843;28;20424;-49
2023/09/04 04:38:55;;;;;;;57.60;29.10;;;12.50;99.90;;;;;;5026637;28;20221;-49
2023/09/04 04:41:21;;;;;;;58.67;32.50;;;12.50;99.90;;;;;;5025294;28;20472;-48
2023/09/04 04:43:47;;;;;;;54.77;30.00;;;12.50;99.90;;;;;;5026140;28;20694;-49
2023/09/04 04:46:15;;;;;;;63.60;31.47;;;12.50;99.90;;;;;;5024419;28;20272;-48
2023/09/04 04:48:40;;;;;;;62.40;33.17;;;12.60;99.90;;;;;;5025263;28;20186;-48
2023/09/04 04:51:07;;;;;;;65.50;32.47;;;12.60;99.90;;;;;;5026340;28;20431;-48
2023/09/04 04:53:33;;;;;;;56.70;32.50;;;12.60;99.90;;;;;;5025883;28;20214;-48
2023/09/04 04:55:59;;;;;;;57.90;32.70;;;12.70;99.90;;;;;;5024913;28;21049;-48
2023/09/04 04:58:25;;;;;;;56.40;30.50;;;12.70;99.90;;;;;;5025880;28;20488;-48
2023/09/04 05:00:51;;;;;;;61.20;32.80;;;12.70;99.90;;;;;;5027045;28;20441;-49
2023/09/04 05:03:16;;;;;;;54.83;30.40;;;12.70;99.90;;;;;;5023377;28;20301;-48
2023/09/04 05:05:46;;;;;;;55.30;30.60;;;12.70;99.90;;;;;;5022673;28;20194;-48
2023/09/04 05:08:11;;;;;;;59.30;31.80;;;12.70;99.90;;;;;;5027519;28;20669;-48
2023/09/04 05:10:37;;;;;;;70.47;33.50;;;12.80;99.90;;;;;;5025447;28;20526;-48
2023/09/04 05:13:03;;;;;;;60.53;32.67;;;12.80;99.90;;;;;;5023443;28;20195;-48
2023/09/04 05:15:28;;;;;;;61.93;32.43;;;12.90;99.90;;;;;;5026401;28;20193;-48
2023/09/04 05:17:54;;;;;;;70.43;34.00;;;12.90;99.90;;;;;;5022751;28;20225;-47
2023/09/04 05:20:20;;;;;;;63.07;31.60;;;12.90;99.90;;;;;;5024121;28;20181;-49
2023/09/04 05:22:45;;;;;;;62.50;31.97;;;12.90;99.90;;;;;;5025629;28;20273;-49
2023/09/04 05:25:11;;;;;;;56.00;30.57;;;13.00;99.90;;;;;;5023602;28;20202;-48
2023/09/04 05:27:37;;;;;;;58.17;30.40;;;13.00;99.90;;;;;;5025568;28;20655;-48
2023/09/04 05:30:04;;;;;;;59.73;32.60;;;13.00;99.90;;;;;;5023381;28;20222;-50
2023/09/04 05:32:30;;;;;;;68.13;33.97;;;13.10;99.90;;;;;;5022941;28;20225;-49
2023/09/04 05:34:56;;;;;;;56.67;31.13;;;13.10;99.90;;;;;;5023163;28;20511;-49
2023/09/04 05:37:22;;;;;;;48.40;29.77;;;13.20;99.90;;;;;;5026094;28;20226;-49
2023/09/04 05:39:48;;;;;;;59.93;31.33;;;13.30;99.90;;;;;;5022551;28;20190;-49
2023/09/04 05:42:14;;;;;;;56.23;32.07;;;13.30;99.90;;;;;;5025659;28;20845;-49
2023/09/04 05:44:40;;;;;;;55.37;30.70;;;13.30;99.90;;;;;;5026774;28;20527;-49
2023/09/04 05:47:05;;;;;;;55.07;32.70;;;13.40;99.90;;;;;;5023486;28;20191;-49
2023/09/04 05:49:31;;;;;;;57.83;31.00;;;13.50;99.90;;;;;;5025402;28;20771;-50
2023/09/04 05:51:56;;;;;;;52.13;31.50;;;13.50;99.90;;;;;;5021671;28;20679;-49
2023/09/04 05:54:23;;;;;;;45.67;29.60;;;13.60;99.90;;;;;;5025147;28;20214;-49
2023/09/04 05:56:49;;;;;;;46.30;30.77;;;13.80;99.90;;;;;;5024711;28;20195;-49
2023/09/04 05:59:15;;;;;;;45.40;30.03;;;14.00;99.90;;;;;;5024620;28;20437;-49
2023/09/04 06:01:40;;;;;;;43.37;29.20;;;14.10;99.90;;;;;;5026669;28;20444;-51
2023/09/04 06:04:06;;;;;;;44.57;26.83;;;14.20;99.90;;;;;;5023703;28;20363;-49
2023/09/04 06:06:31;;;;;;;43.37;28.40;;;14.40;99.90;;;;;;5025171;28;20642;-51
2023/09/04 06:08:57;;;;;;;37.33;27.07;;;14.60;99.90;;;;;;5022623;28;20190;-50
2023/09/04 06:11:23;;;;;;;33.67;24.90;;;14.80;99.90;;;;;;5022004;28;20179;-51
2023/09/04 06:13:49;;;;;;;33.40;23.83;;;15.10;99.90;;;;;;5028233;28;20188;-50
2023/09/04 06:16:17;;;;;;;32.07;23.37;;;15.40;99.90;;;;;;5023944;28;20188;-52
2023/09/04 06:18:43;;;;;;;29.17;21.50;;;15.60;99.90;;;;;;5022371;28;20195;-51
2023/09/04 06:21:08;;;;;;;29.40;21.83;;;15.70;99.90;;;;;;5023617;28;20486;-51
2023/09/04 06:23:34;;;;;;;24.57;20.30;;;16.00;99.90;;;;;;5022264;28;20220;-52
2023/09/04 06:26:03;;;;;;;27.40;20.33;;;16.20;99.90;;;;;;5022654;28;20223;-53
2023/09/04 06:28:29;;;;;;;19.00;16.80;;;16.30;99.90;;;;;;5026151;28;20179;-52
2023/09/04 06:30:55;;;;;;;25.17;16.93;;;16.50;99.90;;;;;;5026512;28;20974;-51
2023/09/04 06:33:29;;;;;;;19.97;14.60;;;16.60;99.90;;;;;;5025822;28;20273;-51
2023/09/04 06:35:54;;;;;;;26.50;19.03;;;16.90;99.90;;;;;;5023020;28;20434;-52
2023/09/04 06:38:20;;;;;;;21.73;14.20;;;17.00;67.70;;;;;;5019992;28;20829;-50
2023/09/04 06:40:45;;;;;;;22.27;13.70;;;17.30;1.00;;;;;;5023262;28;20324;-50
2023/09/04 06:43:11;;;;;;;15.17;13.57;;;17.50;1.00;;;;;;5020530;28;20946;-52
2023/09/04 06:45:37;;;;;;;22.07;12.93;;;17.70;1.00;;;;;;5022992;28;20181;-53
2023/09/04 06:48:07;;;;;;;13.90;11.10;;;17.90;99.90;;;;;;5026755;28;20222;-51
2023/09/04 06:50:32;;;;;;;21.83;15.83;;;18.20;1.00;;;;;;5026731;28;20569;-50
2023/09/04 06:52:58;;;;;;;16.10;11.67;;;18.40;1.00;;;;;;5026565;28;20908;-52
2023/09/04 06:55:23;;;;;;;11.43;10.27;;;18.60;1.00;;;;;;5023529;28;20202;-53
2023/09/04 06:57:49;;;;;;;13.00;11.50;;;18.90;1.00;;;;;;5028867;28;20288;-52
2023/09/04 07:00:15;;;;;;;14.03;11.80;;;19.10;1.00;;;;;;5023549;28;20663;-52
2023/09/04 07:02:41;;;;;;;13.73;11.50;;;19.30;99.90;;;;;;5021798;28;21062;-52
2023/09/04 07:05:08;;;;;;;12.83;11.10;;;19.50;99.90;;;;;;5026598;28;20438;-52
2023/09/04 07:07:35;;;;;;;11.40;10.23;;;19.80;99.90;;;;;;5031076;28;20194;-53
2023/09/04 07:10:04;;;;;;;12.50;9.10;;;19.90;60.80;;;;;;5028009;28;20438;-51
2023/09/04 07:12:32;;;;;;;10.77;9.10;;;20.20;51.90;;;;;;5025409;28;20438;-52
2023/09/04 07:14:58;;;;;;;12.03;8.30;;;20.50;43.50;;;;;;5027858;28;20444;-52
2023/09/04 07:17:23;;;;;;;10.07;7.77;;;20.80;30.00;;;;;;5022470;28;20802;-52
2023/09/04 07:19:49;;;;;;;9.07;7.47;;;21.00;1.00;;;;;;5027146;28;20194;-52
2023/09/04 07:22:15;;;;;;;7.30;6.40;;;21.30;1.00;;;;;;5026019;28;20235;-53
2023/09/04 07:24:40;;;;;;;15.00;6.30;;;21.50;1.00;;;;;;5029750;28;20199;-52
2023/09/04 07:27:06;;;;;;;9.87;6.87;;;21.70;1.00;;;;;;5027111;28;20195;-52
2023/09/04 07:29:31;;;;;;;6.57;5.97;;;21.90;1.00;;;;;;5025191;28;20274;-51
2023/09/04 07:31:58;;;;;;;6.23;5.63;;;22.20;1.00;;;;;;5027611;28;20915;-51
2023/09/04 07:34:23;;;;;;;7.67;6.10;;;22.10;1.00;;;;;;5025976;28;20191;-52
2023/09/04 07:36:49;;;;;;;5.53;5.03;;;22.10;1.00;;;;;;5025647;28;20958;-52
2023/09/04 07:39:14;;;;;;;7.33;5.50;;;22.30;1.00;;;;;;5027581;28;20198;-52
2023/09/04 07:41:40;;;;;;;8.23;4.80;;;22.40;1.00;;;;;;5028976;28;20215;-52
2023/09/04 07:44:06;;;;;;;10.40;4.97;;;22.80;1.00;;;;;;5025039;28;20675;-52
2023/09/04 07:46:31;;;;;;;6.47;4.67;;;23.30;1.00;;;;;;5028079;28;20227;-52
2023/09/04 07:48:57;;;;;;;5.70;4.87;;;23.70;1.00;;;;;;5026368;28;20179;-53
2023/09/04 07:51:22;;;;;;;7.20;4.40;;;23.80;1.00;;;;;;5028070;28;20207;-53
2023/09/04 07:53:49;;;;;;;6.00;4.20;;;24.10;1.00;;;;;;5023491;28;20258;-53
2023/09/04 07:56:15;;;;;;;8.13;4.80;;;24.30;1.00;;;;;;5025306;28;20192;-52
2023/09/04 07:58:41;;;;;;;6.03;4.43;;;24.50;1.00;;;;;;5026445;28;20659;-54
2023/09/04 08:01:13;;;;;;;4.70;4.30;;;24.80;1.00;;;;;;5025169;28;20442;-52
2023/09/04 08:03:39;;;;;;;7.90;4.40;;;24.90;1.00;;;;;;5022828;28;20550;-50
2023/09/04 08:06:05;;;;;;;7.90;4.27;;;25.10;1.00;;;;;;5021639;28;20520;-49
2023/09/04 08:08:30;;;;;;;5.30;3.93;;;25.20;1.00;;;;;;5025327;28;20450;-52
2023/09/04 08:10:56;;;;;;;6.73;4.07;;;25.30;1.00;;;;;;5021607;28;20635;-50
2023/09/04 08:13:22;;;;;;;5.40;3.77;;;25.30;1.00;;;;;;5022690;28;20195;-49
2023/09/04 08:15:48;;;;;;;7.53;3.60;;;25.60;1.00;;;;;;5022701;28;20621;-51
2023/09/04 08:18:13;;;;;;;6.63;3.40;;;25.70;1.00;;;;;;5023429;28;20465;-52
2023/09/04 08:20:39;;;;;;;6.40;4.40;;;25.80;1.00;;;;;;5023231;28;20184;-51
2023/09/04 08:23:09;;;;;;;5.90;3.77;;;25.70;1.00;;;;;;5020123;28;20247;-52
2023/09/04 08:25:35;;;;;;;3.90;3.37;;;25.70;1.00;;;;;;5023993;28;20491;-51
2023/09/04 08:28:02;;;;;;;5.57;3.30;;;25.90;1.00;;;;;;5025440;28;21125;-52
2023/09/04 08:30:28;;;;;;;4.90;2.97;;;26.20;1.00;;;;;;5026875;28;20430;-52
2023/09/04 08:32:54;;;;;;;3.27;2.80;;;26.40;1.00;;;;;;5025498;28;20568;-52
2023/09/04 08:35:19;;;;;;;3.33;2.83;;;26.40;1.00;;;;;;5024947;28;20180;-53
2023/09/04 08:37:45;;;;;;;3.70;2.70;;;26.50;1.00;;;;;;5025460;28;20194;-52
2023/09/04 08:40:12;;;;;;;5.37;2.87;;;26.60;1.00;;;;;;5022492;28;20192;-53
2023/09/04 08:42:39;;;;;;;4.80;2.60;;;26.50;1.00;;;;;;5026511;28;20568;-52
2023/09/04 08:45:08;;;;;;;6.17;2.23;;;26.50;1.00;;;;;;5025221;28;21574;-51
2023/09/04 08:47:41;;;;;;;2.60;2.40;;;26.50;1.00;;;;;;5027572;28;20444;-51
2023/09/04 08:50:07;;;;;;;3.73;2.33;;;26.50;1.00;;;;;;5032563;28;20953;-51
2023/09/04 08:52:36;;;;;;;3.73;3.10;;;26.80;1.00;;;;;;5032366;28;20521;-51
2023/09/04 08:55:05;;;;;;;3.67;2.60;;;26.70;1.00;;;;;;5031091;28;20751;-51
2023/09/04 08:57:33;;;;;;;2.77;2.40;;;26.60;1.00;;;;;;5032466;28;20433;-51
2023/09/04 08:59:59;;;;;;;3.30;2.30;;;26.90;1.00;;;;;;5031214;28;20448;-52
2023/09/04 09:02:25;;;;;;;4.67;2.30;;;26.90;1.00;;;;;;5032795;28;20797;-54
2023/09/04 09:04:52;;;;;;;5.33;2.70;;;26.70;1.00;;;;;;5032021;28;20436;-52
2023/09/04 09:07:20;;;;;;;3.10;2.20;;;26.80;1.00;;;;;;5032126;28;20226;-53
2023/09/04 09:09:49;;;;;;;4.03;2.20;;;26.80;1.00;;;;;;5030347;28;20449;-53
2023/09/04 09:12:15;;;;;;;4.10;2.50;;;26.80;1.00;;;;;;5032736;28;20440;-54
2023/09/04 09:14:40;;;;;;;2.50;2.30;;;26.90;1.00;;;;;;5031122;28;20532;-53
2023/09/04 09:17:08;;;;;;;2.70;2.37;;;26.90;1.00;;;;;;5031635;28;20179;-54
2023/09/04 09:19:38;;;;;;;4.20;2.50;;;26.70;1.00;;;;;;5031015;28;20229;-53
2023/09/04 09:22:14;;;;;;;2.83;2.10;;;26.20;1.00;;;;;;5031803;28;20481;-52
2023/09/04 09:25:00;;;;;;;2.70;2.20;;;25.60;1.00;;;;;;5026329;28;20508;-54
2023/09/04 09:27:29;;;;;;;4.67;2.23;;;25.40;1.00;;;;;;5035685;28;20448;-53
2023/09/04 09:29:59;;;;;;;3.33;2.30;;;24.90;1.00;;;;;;5032129;28;20517;-53
2023/09/04 09:32:32;;;;;;;8.00;2.80;;;24.60;1.00;;;;;;5033204;28;20473;-54
2023/09/04 09:35:00;;;;;;;4.43;3.00;;;24.40;1.00;;;;;;5031967;28;20430;-54
2023/09/04 09:37:29;;;;;;;2.70;2.27;;;24.20;1.00;;;;;;5033444;28;20430;-53
2023/09/04 09:39:54;;;;;;;3.37;2.60;;;23.80;1.00;;;;;;5032820;28;20915;-53
2023/09/04 09:42:20;;;;;;;8.67;2.73;;;23.50;1.00;;;;;;5028494;28;20426;-53
2023/09/04 09:44:46;;;;;;;6.43;2.80;;;23.40;1.00;;;;;;5031769;28;20262;-53
2023/09/04 09:47:13;;;;;;;3.57;2.50;;;23.30;1.00;;;;;;5030396;28;20195;-54
2023/09/04 09:49:40;;;;;;;6.17;2.73;;;23.30;1.00;;;;;;5024925;28;20434;-53
2023/09/04 09:52:10;;;;;;;5.93;2.77;;;23.20;1.00;;;;;;5027104;28;20999;-53
2023/09/04 09:54:41;;;;;;;6.80;2.70;;;23.20;1.00;;;;;;5024415;28;20438;-53
2023/09/04 09:57:09;;;;;;;4.90;2.37;;;23.20;1.00;;;;;;5023299;28;20442;-52
2023/09/04 09:59:36;;;;;;;3.80;2.60;;;23.20;1.00;;;;;;5026069;28;20481;-53
2023/09/04 10:02:06;;;;;;;7.73;2.70;;;23.10;1.00;;;;;;5021505;28;20481;-54
2023/09/04 10:04:33;;;;;;;2.70;1.80;;;23.10;1.00;;;;;;5023792;28;20477;-52
2023/09/04 10:07:00;;;;;;;4.53;2.17;;;23.20;1.00;;;;;;5026617;28;20438;-52
2023/09/04 10:09:28;;;;;;;3.70;2.60;;;23.20;1.00;;;;;;5023581;28;20433;-53
2023/09/04 10:12:07;;;;;;;2.10;1.70;;;23.40;1.00;;;;;;5025614;28;20479;-51
2023/09/04 10:14:39;;;;;;;11.87;2.10;;;23.60;1.00;;;;;;5024124;28;20430;-53
2023/09/04 10:17:08;;;;;;;2.47;2.00;;;23.70;1.00;;;;;;5024512;28;20445;-53
2023/09/04 10:19:39;;;;;;;3.10;2.60;;;23.80;1.00;;;;;;5023825;28;20952;-52
2023/09/04 10:22:20;;;;;;;3.33;2.00;;;24.00;1.00;;;;;;5027118;28;20481;-53
2023/09/04 10:24:57;;;;;;;7.20;2.73;;;24.20;1.00;;;;;;5025256;28;20937;-52
2023/09/04 10:27:26;;;;;;;2.93;2.10;;;24.50;1.00;;;;;;5024429;28;20433;-52
2023/09/04 10:30:05;;;;;;;5.33;2.10;;;24.90;1.00;;;;;;5027331;28;20471;-53
2023/09/04 10:32:31;;;;;;;2.83;2.40;;;25.20;1.00;;;;;;5027931;28;20478;-53
2023/09/04 10:34:57;;;;;;;6.70;2.30;;;25.70;1.00;;;;;;5024851;28;20484;-53
2023/09/04 10:37:26;;;;;;;3.03;2.50;;;26.20;1.00;;;;;;5028888;28;20925;-53
2023/09/04 10:39:53;;;;;;;4.40;2.50;;;26.70;1.00;;;;;;5024882;28;20196;-53
2023/09/04 10:42:20;;;;;;;4.10;2.57;;;27.40;1.00;;;;;;5030682;28;20735;-52
2023/09/04 10:44:51;;;;;;;2.87;2.33;;;28.00;1.00;;;;;;5027399;28;20815;-52
2023/09/04 10:47:17;;;;;;;2.80;2.40;;;28.30;1.00;;;;;;5029951;28;20465;-53
2023/09/04 10:49:44;;;;;;;3.10;2.87;;;29.00;1.00;;;;;;5025718;28;20576;-53
2023/09/04 10:52:11;;;;;;;7.27;2.90;;;29.30;1.00;;;;;;5029019;28;20430;-54
2023/09/04 10:54:37;;;;;;;3.47;2.90;;;29.50;1.00;;;;;;5028303;28;20465;-52
2023/09/04 10:57:10;;;;;;;2.70;2.10;;;29.80;1.00;;;;;;5027758;28;20945;-52
2023/09/04 10:59:54;;;;;;;3.13;2.63;;;30.00;1.00;;;;;;5024461;28;20667;-52
2023/09/04 11:02:46;;;;;;;4.60;3.13;;;30.20;1.00;;;;;;5028493;28;20441;-52
2023/09/04 11:05:12;;;;;;;6.00;2.90;;;30.20;1.00;;;;;;5023817;28;20468;-52
2023/09/04 11:07:37;;;;;;;5.70;3.00;;;30.60;1.00;;;;;;5028032;28;20447;-53
2023/09/04 11:10:17;;;;;;;9.63;2.83;;;30.50;1.00;;;;;;5022921;28;20233;-53
2023/09/04 11:12:44;;;;;;;11.83;2.77;;;30.80;1.00;;;;;;5023783;28;20271;-53
2023/09/04 11:15:14;;;;;;;5.67;3.30;;;31.30;1.00;;;;;;5026568;28;20785;-53
2023/09/04 11:17:43;;;;;;;7.10;3.10;;;31.70;1.00;;;;;;5028405;28;20446;-53
2023/09/04 11:20:10;;;;;;;6.67;3.43;;;31.90;1.00;;;;;;5027442;28;20449;-54
2023/09/04 11:22:35;;;;;;;3.43;3.13;;;32.00;1.00;;;;;;5023927;28;20549;-53
2023/09/04 11:25:01;;;;;;;8.00;3.03;;;32.20;1.00;;;;;;5025287;28;20442;-53
2023/09/04 11:27:27;;;;;;;7.83;4.07;;;32.20;1.00;;;;;;5028026;28;20196;-52
2023/09/04 11:29:54;;;;;;;3.87;2.90;;;32.40;1.00;;;;;;5024095;28;20185;-55
2023/09/04 11:32:20;;;;;;;3.83;3.37;;;32.60;1.00;;;;;;5030138;28;21110;-52
2023/09/04 11:34:48;;;;;;;3.83;3.40;;;32.30;1.00;;;;;;5027575;28;20500;-53
2023/09/04 11:37:14;;;;;;;3.57;3.27;;;31.90;1.00;;;;;;5025165;28;20448;-53
2023/09/04 11:39:56;;;;;;;8.07;3.50;;;31.90;1.00;;;;;;5024358;28;20458;-52
2023/09/04 11:42:23;;;;;;;7.43;3.40;;;31.90;1.00;;;;;;5026186;28;20183;-53
2023/09/04 11:44:49;;;;;;;4.13;3.10;;;32.20;1.00;;;;;;5026682;28;20537;-53
2023/09/04 11:47:16;;;;;;;4.70;3.23;;;32.40;1.00;;;;;;5024317;28;20469;-54
2023/09/04 11:49:42;;;;;;;8.87;2.87;;;32.40;1.00;;;;;;5025875;28;20454;-54
2023/09/04 11:52:09;;;;;;;8.13;3.00;;;32.40;1.00;;;;;;5026458;28;20521;-54
2023/09/04 11:54:37;;;;;;;5.10;2.83;;;32.60;1.00;;;;;;5023822;28;20632;-53
2023/09/04 11:57:03;;;;;;;4.70;2.10;;;33.10;1.00;;;;;;5026522;28;20470;-54
2023/09/04 11:59:34;;;;;;;4.70;2.40;;;33.20;1.00;;;;;;5025930;28;20512;-54
2023/09/04 12:01:59;;;;;;;3.30;2.50;;;33.30;1.00;;;;;;5026580;28;20477;-54
2023/09/04 12:04:26;;;;;;;5.73;3.07;;;33.40;1.00;;;;;;5024727;28;20517;-52
2023/09/04 12:06:52;;;;;;;9.67;2.80;;;33.50;1.00;;;;;;5025913;28;20298;-54
2023/09/04 12:09:18;;;;;;;3.73;2.30;;;33.10;1.00;;;;;;5026223;28;20438;-53
2023/09/04 12:11:44;;;;;;;2.37;2.17;;;32.80;1.00;;;;;;5025172;28;20450;-52
2023/09/04 12:14:10;;;;;;;7.63;2.90;;;32.70;1.00;;;;;;5028194;28;20183;-54
2023/09/04 12:16:36;;;;;;;2.30;2.10;;;32.60;1.00;;;;;;5029034;28;20270;-55
2023/09/04 12:19:04;;;;;;;3.47;1.90;;;32.90;1.00;;;;;;5023653;28;20492;-53
2023/09/04 12:21:30;;;;;;;3.00;2.20;;;33.20;1.00;;;;;;5026961;28;20564;-54
2023/09/04 12:23:56;;;;;;;5.20;2.00;;;33.50;99.90;;;;;;5023161;28;20557;-54
2023/09/04 12:26:22;;;;;;;2.70;1.90;;;33.50;99.90;;;;;;5025115;28;20589;-54
2023/09/04 12:28:47;;;;;;;5.13;1.80;;;33.50;1.00;;;;;;5024261;28;20435;-53
2023/09/04 12:31:13;;;;;;;2.07;1.83;;;33.50;99.90;;;;;;5021083;28;20195;-53
2023/09/04 12:33:40;;;;;;;4.83;1.53;;;33.40;99.90;;;;;;5026990;28;20652;-54
2023/09/04 12:36:10;;;;;;;2.67;2.13;;;32.90;99.90;;;;;;5027040;28;20222;-53
2023/09/04 12:38:37;;;;;;;2.60;1.80;;;32.50;99.90;;;;;;5025011;28;20437;-53
2023/09/04 12:41:03;;;;;;;2.50;1.87;;;32.30;99.90;;;;;;5021698;28;20438;-54